Time;durP1;ratioP1;P1;durP2;ratioP2;P2;SDS_P1;SDS_P2;PMS_P1;PMS_P2;Temp;Humidity;BMP_temperature;BMP_pressure;BME280_temperature;BME280_humidity;BME280_pressure;Samples;Min_cycle;Max_cycle;Signal;HPM_P1;HPM_P2
2022/08/28 00:00:35;;;;;;;11.43;3.92;;;;;;;16.71;69.65;101714.88;6156044;23;20007;-72
2022/08/28 00:03:01;;;;;;;13.23;3.75;;;;;;;16.77;69.83;101713.06;6159219;23;20021;-74
2022/08/28 00:05:29;;;;;;;10.98;4.28;;;;;;;16.60;70.00;101711.13;6184515;23;20012;-72
2022/08/28 00:07:54;;;;;;;9.98;3.92;;;;;;;16.61;70.88;101714.72;6184626;23;20060;-71
2022/08/28 00:10:21;;;;;;;14.18;3.80;;;;;;;16.62;71.38;101728.13;6185327;23;20017;-72
2022/08/28 00:12:48;;;;;;;12.02;4.15;;;;;;;16.63;70.92;101721.56;6184823;23;20005;-72
2022/08/28 00:15:18;;;;;;;11.23;4.00;;;;;;;16.59;71.40;101725.03;6182866;23;20008;-73
2022/08/28 00:17:43;;;;;;;9.98;3.70;;;;;;;16.50;71.91;101723.78;6184621;23;20047;-74
2022/08/28 00:20:11;;;;;;;12.85;4.05;;;;;;;16.42;71.67;101725.81;6185191;23;20005;-72
2022/08/28 00:22:37;;;;;;;12.88;4.30;;;;;;;16.43;72.12;101724.75;6184966;23;20009;-72
2022/08/28 00:25:05;;;;;;;12.45;4.10;;;;;;;16.41;72.35;101720.59;6184985;23;20375;-73
2022/08/28 00:30:15;;;;;;;11.70;4.43;;;;;;;16.46;72.80;101721.53;6184933;23;20071;-72
2022/08/28 00:32:40;;;;;;;14.98;4.80;;;;;;;16.42;72.75;101712.16;6184555;23;20009;-75
2022/08/28 00:35:06;;;;;;;15.95;4.43;;;;;;;16.42;73.54;101723.09;6184438;23;20009;-72
2022/08/28 00:37:31;;;;;;;13.00;4.47;;;;;;;16.37;73.45;101725.72;6185113;23;20092;-71
2022/08/28 00:39:56;;;;;;;13.82;4.18;;;;;;;16.28;73.50;101716.25;6184807;23;20008;-72
2022/08/28 00:42:22;;;;;;;14.75;4.28;;;;;;;16.20;74.15;101725.66;6184334;23;20005;-71
2022/08/28 00:44:47;;;;;;;15.65;4.53;;;;;;;16.23;74.52;101725.19;6158261;23;20035;-74
2022/08/28 00:47:12;;;;;;;14.68;4.50;;;;;;;16.21;75.73;101719.09;6185177;23;20005;-72
2022/08/28 00:49:46;;;;;;;12.68;4.70;;;;;;;16.15;75.72;101727.44;6158417;23;20063;-74
2022/08/28 00:52:14;;;;;;;15.77;4.30;;;;;;;16.13;76.04;101730.41;6184786;23;20080;-75
2022/08/28 00:55:05;;;;;;;18.75;4.85;;;;;;;16.13;76.54;101727.69;6184764;23;20005;-73
2022/08/28 00:57:38;;;;;;;11.95;4.50;;;;;;;16.01;76.27;101719.50;6178534;23;20009;-73
2022/08/28 01:00:10;;;;;;;12.82;4.57;;;;;;;16.04;77.88;101729.97;6184485;23;20001;-73
2022/08/28 01:02:35;;;;;;;12.75;5.20;;;;;;;16.04;77.46;101731.88;6181917;23;20407;-72
2022/08/28 01:05:00;;;;;;;12.27;4.40;;;;;;;15.92;77.77;101729.16;6184606;23;20059;-72
2022/08/28 01:07:26;;;;;;;15.23;5.10;;;;;;;15.94;78.79;101735.19;6184547;23;20009;-72
2022/08/28 01:09:53;;;;;;;13.23;4.70;;;;;;;15.86;79.62;101741.84;6183839;23;20027;-73
2022/08/28 01:12:23;;;;;;;11.63;4.47;;;;;;;15.87;80.04;101742.69;6183983;23;20005;-71
2022/08/28 01:14:52;;;;;;;15.30;4.60;;;;;;;15.88;79.62;101747.06;6184269;23;20051;-74
2022/08/28 01:17:22;;;;;;;13.07;4.57;;;;;;;15.84;81.24;101745.91;6184405;23;20048;-74
2022/08/28 01:19:55;;;;;;;12.38;4.55;;;;;;;15.75;81.67;101738.03;6182985;23;20005;-73
2022/08/28 01:22:48;;;;;;;14.98;5.03;;;;;;;15.79;81.70;101743.84;6184817;23;20005;-73
2022/08/28 01:25:18;;;;;;;12.25;4.85;;;;;;;15.75;81.86;101740.75;6184905;23;20031;-74
2022/08/28 01:27:44;;;;;;;11.50;4.83;;;;;;;15.76;82.70;101734.25;6184629;23;20005;-74
2022/08/28 01:30:13;;;;;;;14.07;4.95;;;;;;;15.73;82.72;101739.31;6184878;23;20237;-71
2022/08/28 01:32:44;;;;;;;16.45;4.45;;;;;;;15.75;82.07;101746.22;6183630;23;20020;-74
2022/08/28 01:35:14;;;;;;;11.07;4.75;;;;;;;15.71;82.17;101739.56;6158423;23;20010;-72
2022/08/28 01:37:40;;;;;;;14.02;4.78;;;;;;;15.66;83.29;101744.91;6184493;23;20323;-72
2022/08/28 01:40:08;;;;;;;17.35;4.78;;;;;;;15.69;82.71;101747.16;6184297;23;20011;-72
2022/08/28 01:42:41;;;;;;;16.05;5.07;;;;;;;15.65;84.31;101745.97;6180980;23;20028;-72
2022/08/28 01:45:09;;;;;;;15.88;5.30;;;;;;;15.66;84.83;101752.28;6157826;23;20008;-71
2022/08/28 01:47:39;;;;;;;12.85;4.68;;;;;;;15.63;83.92;101753.56;6184654;23;20005;-70
2022/08/28 01:50:06;;;;;;;15.73;5.00;;;;;;;15.59;85.97;101755.97;6184340;23;20419;-73
2022/08/28 01:52:38;;;;;;;21.48;5.22;;;;;;;15.60;85.58;101748.59;6184292;23;20041;-74
2022/08/28 01:55:03;;;;;;;;;;;;;;;15.82;81.10;101757.06;6158372;23;20020;-73
2022/08/28 01:57:29;;;;;;;14.13;4.50;;;;;;;15.66;86.21;101755.81;6184948;23;19904;-72
2022/08/28 01:59:54;;;;;;;10.07;4.65;;;;;;;15.65;85.14;101751.44;6184256;23;20012;-70
2022/08/28 02:02:21;;;;;;;15.10;4.70;;;;;;;15.55;85.79;101757.50;6156640;23;20008;-70
2022/08/28 02:04:49;;;;;;;12.38;4.90;;;;;;;15.49;87.45;101752.13;6185530;23;20012;-73
2022/08/28 02:07:15;;;;;;;10.20;4.88;;;;;;;15.57;86.32;101751.78;6186629;23;20005;-71
2022/08/28 02:09:41;;;;;;;11.65;4.53;;;;;;;15.50;87.34;101760.06;6154073;23;20065;-72
2022/08/28 02:12:06;;;;;;;11.45;4.70;;;;;;;15.46;87.18;101758.06;6156003;23;20327;-73
2022/08/28 02:14:32;;;;;;;12.98;4.70;;;;;;;15.39;89.58;101756.28;6156898;23;20012;-71
2022/08/28 02:16:57;;;;;;;12.50;5.32;;;;;;;15.38;89.19;101759.22;6156458;23;20022;-72
2022/08/28 02:19:23;;;;;;;12.25;4.43;;;;;;;15.36;90.93;101764.94;6156664;23;20008;-73
2022/08/28 02:21:49;;;;;;;17.80;5.10;;;;;;;15.34;90.58;101767.06;6156396;23;20025;-73
2022/08/28 02:24:15;;;;;;;19.63;5.38;;;;;;;15.32;91.01;101771.91;6156321;23;20052;-73
2022/08/28 02:26:41;;;;;;;14.32;4.70;;;;;;;15.30;91.47;101765.03;6155103;23;20379;-73
2022/08/28 02:29:10;;;;;;;10.60;4.47;;;;;;;15.25;91.94;101765.75;6156316;23;20006;-72
2022/08/28 02:31:36;;;;;;;11.40;4.88;;;;;;;15.16;93.20;101769.88;6156636;23;20015;-74
2022/08/28 02:34:02;;;;;;;12.35;5.60;;;;;;;15.10;93.81;101760.72;6156385;23;20033;-74
2022/08/28 02:36:28;;;;;;;14.85;5.15;;;;;;;15.13;94.19;101764.91;6156254;23;20411;-73
2022/08/28 02:38:53;;;;;;;13.15;5.05;;;;;;;15.12;94.78;101769.50;6155916;23;20006;-71
2022/08/28 02:41:19;;;;;;;13.52;4.93;;;;;;;14.99;96.35;101762.38;6155343;23;20060;-71
2022/08/28 02:43:44;;;;;;;16.23;4.82;;;;;;;15.00;97.01;101774.91;6155974;23;20001;-74
2022/08/28 02:46:10;;;;;;;16.95;5.10;;;;;;;14.98;96.64;101760.69;6154807;23;20013;-71
2022/08/28 02:48:37;;;;;;;14.88;4.70;;;;;;;15.06;97.54;101773.16;6155652;23;20076;-71
2022/08/28 02:51:07;;;;;;;13.00;4.68;;;;;;;14.92;98.59;101763.53;6156165;23;20001;-74
2022/08/28 02:53:33;;;;;;;14.40;5.10;;;;;;;14.88;99.64;101771.31;6156044;23;20001;-73
2022/08/28 02:56:01;;;;;;;10.68;4.63;;;;;;;14.91;98.24;101772.75;6155571;23;20087;-73
2022/08/28 02:58:28;;;;;;;10.00;4.45;;;;;;;14.94;97.47;101770.38;6154784;23;20316;-72
2022/08/28 03:00:55;;;;;;;13.82;4.80;;;;;;;14.96;97.39;101768.28;6152500;23;20438;-73
2022/08/28 03:03:21;;;;;;;13.57;5.05;;;;;;;14.87;98.55;101772.38;6154780;23;20001;-71
2022/08/28 03:05:46;;;;;;;9.43;4.22;;;;;;;14.87;98.39;101761.47;6155681;23;20088;-74
2022/08/28 03:08:12;;;;;;;11.73;4.30;;;;;;;14.90;98.76;101769.22;6156862;23;20005;-73
2022/08/28 03:10:37;;;;;;;10.25;4.40;;;;;;;14.76;98.40;101765.81;6158510;23;20021;-70
2022/08/28 03:13:02;;;;;;;9.50;4.40;;;;;;;14.74;100.00;101778.03;6185364;23;20009;-72
2022/08/28 03:15:28;;;;;;;13.68;5.00;;;;;;;14.66;100.00;101771.84;6185506;23;20075;-71
2022/08/28 03:17:53;;;;;;;13.75;4.57;;;;;;;14.67;100.00;101769.94;6185706;23;20360;-72
2022/08/28 03:20:19;;;;;;;14.63;4.50;;;;;;;14.59;100.00;101775.66;6185442;23;20176;-74
2022/08/28 03:25:28;;;;;;;12.10;4.72;;;;;;;14.48;100.00;101769.94;6185080;23;20024;-70
2022/08/28 03:27:54;;;;;;;12.90;4.68;;;;;;;14.60;100.00;101777.31;6185558;23;20009;-72
2022/08/28 03:30:21;;;;;;;11.65;5.22;;;;;;;14.46;100.00;101780.22;6185014;23;20415;-72
2022/08/28 03:32:47;;;;;;;12.68;4.90;;;;;;;14.54;100.00;101789.97;6185352;23;20497;-72
2022/08/28 03:35:12;;;;;;;15.55;4.68;;;;;;;14.49;100.00;101776.19;6185764;23;20016;-70
2022/08/28 03:37:38;;;;;;;12.25;4.38;;;;;;;14.49;100.00;101778.91;6185406;23;20005;-71
2022/08/28 03:40:05;;;;;;;19.75;5.28;;;;;;;14.45;100.00;101788.63;6184933;23;20005;-74
2022/08/28 03:42:30;;;;;;;13.90;4.97;;;;;;;14.48;100.00;101790.91;6185725;23;20005;-74
2022/08/28 03:44:56;;;;;;;10.70;4.38;;;;;;;14.43;100.00;101788.84;6158711;23;20012;-71
2022/08/28 03:47:23;;;;;;;12.00;4.93;;;;;;;14.42;100.00;101794.50;6185331;23;20017;-71
2022/08/28 03:49:54;;;;;;;9.27;4.78;;;;;;;14.39;100.00;101794.97;6184910;23;20005;-74
2022/08/28 03:52:19;;;;;;;15.55;5.05;;;;;;;14.36;100.00;101799.81;6184943;23;20009;-73
2022/08/28 03:54:44;;;;;;;12.68;4.80;;;;;;;14.42;100.00;101798.06;6158280;23;20024;-71
2022/08/28 03:57:10;;;;;;;9.55;4.82;;;;;;;14.35;100.00;101798.13;6185150;23;20075;-74
2022/08/28 03:59:35;;;;;;;14.82;5.03;;;;;;;14.25;100.00;101799.72;6158865;23;20017;-73
2022/08/28 04:02:01;;;;;;;14.45;5.22;;;;;;;14.25;100.00;101797.00;6182056;23;20000;-74
2022/08/28 04:04:26;;;;;;;11.77;4.82;;;;;;;14.29;100.00;101796.31;6185460;23;20004;-71
2022/08/28 04:06:52;;;;;;;12.63;4.88;;;;;;;14.18;100.00;101791.66;6185236;23;20052;-71
2022/08/28 04:09:17;;;;;;;14.73;5.05;;;;;;;14.12;100.00;101800.72;6158053;23;20017;-73
2022/08/28 04:11:42;;;;;;;13.73;4.80;;;;;;;14.15;100.00;101800.25;6185122;23;20001;-73
2022/08/28 04:14:10;;;;;;;12.48;4.97;;;;;;;14.14;100.00;101795.88;6185072;23;20052;-70
2022/08/28 04:16:35;;;;;;;13.63;4.93;;;;;;;14.11;100.00;101796.31;6184542;23;20076;-71
2022/08/28 04:19:00;;;;;;;12.35;5.35;;;;;;;14.10;100.00;101791.94;6158290;23;20025;-71
2022/08/28 04:21:26;;;;;;;11.63;5.38;;;;;;;14.09;100.00;101798.44;6158734;23;20031;-71
2022/08/28 04:23:52;;;;;;;15.32;4.95;;;;;;;14.02;100.00;101797.69;6184525;23;20005;-73
2022/08/28 04:26:21;;;;;;;14.63;4.88;;;;;;;14.00;100.00;101793.28;6184890;23;20066;-74
2022/08/28 04:28:47;;;;;;;13.07;5.07;;;;;;;13.95;100.00;101793.13;6184992;23;20013;-72
2022/08/28 04:31:13;;;;;;;12.00;4.82;;;;;;;14.03;100.00;101802.91;6184618;23;20048;-71
2022/08/28 04:33:39;;;;;;;15.20;4.72;;;;;;;14.04;100.00;101809.16;6184822;23;20072;-71
2022/08/28 04:36:09;;;;;;;12.80;4.95;;;;;;;14.02;100.00;101808.56;6184529;23;20005;-72
2022/08/28 04:38:35;;;;;;;15.35;5.35;;;;;;;14.02;100.00;101814.00;6184607;23;20037;-74
2022/08/28 04:41:06;;;;;;;8.82;5.13;;;;;;;14.05;100.00;101805.38;6185079;23;20301;-71
2022/08/28 04:43:31;;;;;;;9.93;4.75;;;;;;;14.04;100.00;101812.72;6185156;23;20009;-74
2022/08/28 04:45:57;;;;;;;11.20;4.82;;;;;;;14.03;100.00;101812.97;6158083;23;20381;-71
2022/08/28 04:48:22;;;;;;;15.40;5.28;;;;;;;14.06;100.00;101810.59;6158444;23;20009;-73
2022/08/28 04:50:49;;;;;;;14.15;4.88;;;;;;;14.06;100.00;101812.50;6183442;23;20012;-74
2022/08/28 04:53:17;;;;;;;16.08;4.90;;;;;;;14.07;100.00;101816.88;6184154;23;20403;-71
2022/08/28 04:55:47;;;;;;;17.58;5.50;;;;;;;14.00;100.00;101811.50;6158592;23;20338;-69
2022/08/28 04:58:13;;;;;;;11.48;4.55;;;;;;;13.95;100.00;101814.06;6184755;23;20430;-72
2022/08/28 05:00:41;;;;;;;13.38;5.00;;;;;;;13.92;100.00;101819.94;6179782;23;20031;-72
2022/08/28 05:03:06;;;;;;;12.15;4.72;;;;;;;13.98;100.00;101825.34;6184558;23;20460;-71
2022/08/28 05:05:33;;;;;;;15.27;4.85;;;;;;;14.00;100.00;101823.22;6181660;23;20089;-73
2022/08/28 05:07:58;;;;;;;11.98;4.40;;;;;;;13.98;100.00;101825.34;6184560;23;20051;-70
2022/08/28 05:10:24;;;;;;;15.75;4.70;;;;;;;13.96;100.00;101830.16;6184971;23;20048;-73
2022/08/28 05:12:50;;;;;;;11.18;4.53;;;;;;;14.00;100.00;101838.72;6184491;23;20005;-71
2022/08/28 05:15:15;;;;;;;11.95;4.60;;;;;;;14.03;100.00;101842.91;6184964;23;20012;-72
2022/08/28 05:17:41;;;;;;;11.73;4.50;;;;;;;13.99;100.00;101842.50;6158454;23;20051;-70
2022/08/28 05:20:06;;;;;;;13.00;4.60;;;;;;;13.99;100.00;101846.06;6157435;23;20011;-71
2022/08/28 05:22:32;;;;;;;11.90;5.13;;;;;;;14.00;100.00;101839.53;6184774;23;20032;-73
2022/08/28 05:24:59;;;;;;;12.45;5.50;;;;;;;13.96;100.00;101843.75;6183952;23;20005;-71
2022/08/28 05:27:25;;;;;;;14.20;5.35;;;;;;;13.92;100.00;101848.00;6184385;23;20434;-70
2022/08/28 05:29:51;;;;;;;11.20;4.97;;;;;;;13.97;100.00;101845.44;6184406;23;20012;-71
2022/08/28 05:32:17;;;;;;;10.02;4.30;;;;;;;13.97;100.00;101850.88;6183384;23;20012;-69
2022/08/28 05:34:42;;;;;;;13.95;4.30;;;;;;;13.92;100.00;101847.16;6158167;23;20427;-73
2022/08/28 05:37:08;;;;;;;10.32;4.45;;;;;;;13.94;100.00;101856.75;6184081;23;20009;-72
2022/08/28 05:39:34;;;;;;;10.63;4.60;;;;;;;13.89;100.00;101853.91;6184610;23;20005;-70
2022/08/28 05:41:59;;;;;;;16.92;5.47;;;;;;;13.92;100.00;101855.31;6184134;23;20036;-71
2022/08/28 05:44:24;;;;;;;13.30;5.03;;;;;;;13.89;100.00;101855.75;6158004;23;20522;-71
2022/08/28 05:46:50;;;;;;;11.05;4.15;;;;;;;13.95;100.00;101863.03;6183545;23;20084;-74
2022/08/28 05:49:18;;;;;;;14.68;4.78;;;;;;;13.89;100.00;101862.06;6184557;23;20012;-72
2022/08/28 05:51:44;;;;;;;15.50;4.90;;;;;;;13.91;100.00;101853.66;6184717;23;20001;-73
2022/08/28 05:54:10;;;;;;;20.13;5.32;;;;;;;13.96;100.00;101865.53;6184427;23;20009;-73
2022/08/28 05:56:39;;;;;;;15.38;4.93;;;;;;;13.99;100.00;101859.66;6184686;23;20013;-71
2022/08/28 05:59:06;;;;;;;13.30;4.53;;;;;;;14.00;100.00;101857.78;6182401;23;20001;-74
2022/08/28 06:01:34;;;;;;;13.95;5.22;;;;;;;14.03;100.00;101861.94;6181978;23;20083;-74
2022/08/28 06:04:04;;;;;;;14.15;4.82;;;;;;;14.09;100.00;101858.31;6184455;23;20315;-72
2022/08/28 06:06:33;;;;;;;11.10;4.32;;;;;;;14.12;100.00;101866.03;6184253;23;20001;-71
2022/08/28 06:09:22;;;;;;;13.57;4.80;;;;;;;14.23;100.00;101873.47;6183792;23;20047;-74
2022/08/28 06:11:48;;;;;;;11.43;4.50;;;;;;;14.18;100.00;101878.75;6184255;23;20005;-71
2022/08/28 06:14:16;;;;;;;14.00;4.47;;;;;;;14.23;100.00;101873.47;6157492;23;20095;-73
2022/08/28 06:16:44;;;;;;;8.40;4.55;;;;;;;14.30;100.00;101878.84;6184582;23;20005;-73
2022/08/28 06:19:11;;;;;;;14.77;4.55;;;;;;;14.35;100.00;101868.94;6182594;23;20009;-71
2022/08/28 06:21:37;;;;;;;16.75;5.05;;;;;;;14.41;100.00;101869.09;6184395;23;20012;-70
2022/08/28 06:24:03;;;;;;;13.18;4.72;;;;;;;14.48;100.00;101875.31;6156885;23;20330;-74
2022/08/28 06:26:29;;;;;;;12.73;4.70;;;;;;;14.52;100.00;101873.78;6184142;23;20009;-74
2022/08/28 06:29:02;;;;;;;15.63;5.25;;;;;;;14.53;100.00;101864.56;6156137;23;20005;-71
2022/08/28 06:31:28;;;;;;;15.32;4.88;;;;;;;14.59;100.00;101871.81;6158129;23;20009;-71
2022/08/28 06:33:56;;;;;;;12.02;4.57;;;;;;;14.59;100.00;101869.09;6184324;23;20051;-73
2022/08/28 06:36:22;;;;;;;12.18;4.55;;;;;;;14.58;100.00;101869.34;6184319;23;20056;-74
2022/08/28 06:38:48;;;;;;;14.10;5.10;;;;;;;14.60;100.00;101875.38;6158017;23;20078;-76
2022/08/28 06:41:14;;;;;;;14.52;5.10;;;;;;;14.62;100.00;101878.75;6182012;23;20092;-76
2022/08/28 06:43:40;;;;;;;21.20;5.57;;;;;;;14.70;100.00;101882.00;6158234;23;20043;-73
2022/08/28 06:46:06;;;;;;;12.40;5.38;;;;;;;14.80;100.00;101886.09;6185949;23;20005;-75
2022/08/28 06:48:31;;;;;;;16.25;5.10;;;;;;;14.81;100.00;101887.75;6186423;23;20438;-73
2022/08/28 06:50:58;;;;;;;14.52;5.50;;;;;;;14.83;100.00;101889.19;6185680;23;20037;-71
2022/08/28 06:53:26;;;;;;;11.60;4.53;;;;;;;14.95;100.00;101894.72;6186149;23;20005;-72
2022/08/28 06:56:06;;;;;;;14.48;4.65;;;;;;;14.99;100.00;101893.19;6186147;23;20001;-73
2022/08/28 06:58:32;;;;;;;11.52;4.35;;;;;;;15.06;100.00;101890.38;6158682;23;20012;-73
2022/08/28 07:01:06;;;;;;;13.65;4.75;;;;;;;15.13;100.00;101893.03;6183017;23;20437;-71
2022/08/28 07:03:32;;;;;;;14.95;4.53;;;;;;;15.14;100.00;101891.94;6185806;23;20007;-73
2022/08/28 07:05:59;;;;;;;9.98;4.43;;;;;;;15.22;100.00;101892.47;6185683;23;20076;-73
2022/08/28 07:08:26;;;;;;;15.10;4.88;;;;;;;15.34;100.00;101892.50;6185255;23;20326;-72
2022/08/28 07:10:53;;;;;;;17.35;4.57;;;;;;;15.42;100.00;101894.09;6185658;23;20008;-74
2022/08/28 07:13:19;;;;;;;12.13;4.30;;;;;;;15.52;99.72;101886.19;6158695;23;20013;-74
2022/08/28 07:15:45;;;;;;;11.45;4.05;;;;;;;15.62;99.66;101887.50;6159500;23;20016;-73
2022/08/28 07:18:11;;;;;;;19.02;4.97;;;;;;;15.71;98.62;101892.38;6185598;23;20001;-74
2022/08/28 07:20:36;;;;;;;11.95;4.38;;;;;;;15.77;96.72;101888.72;6185623;23;20106;-72
2022/08/28 07:23:02;;;;;;;11.75;4.10;;;;;;;15.82;94.49;101887.22;6185602;23;20415;-73
2022/08/28 07:25:28;;;;;;;18.38;3.92;;;;;;;15.86;92.19;101893.88;6159419;23;20008;-74
2022/08/28 07:27:53;;;;;;;14.55;4.03;;;;;;;15.91;91.42;101893.97;6158155;23;20047;-72
2022/08/28 07:30:19;;;;;;;14.05;4.07;;;;;;;15.92;90.83;101899.22;6159002;23;20012;-72
2022/08/28 07:32:48;;;;;;;16.27;3.88;;;;;;;15.95;90.16;101897.91;6185470;23;20331;-71
2022/08/28 07:35:14;;;;;;;12.68;4.28;;;;;;;16.00;89.48;101908.94;6185496;23;20002;-72
2022/08/28 07:37:39;;;;;;;9.75;3.15;;;;;;;16.07;87.66;101906.94;6185364;23;20319;-71
2022/08/28 07:40:05;;;;;;;10.10;3.40;;;;;;;16.11;87.27;101899.94;6159026;23;19997;-72
2022/08/28 07:45:14;;;;;;;11.38;3.70;;;;;;;16.29;83.28;101912.66;6185130;23;20039;-71
2022/08/28 07:47:40;;;;;;;12.60;3.17;;;;;;;16.34;83.83;101911.13;6184958;23;20032;-73
2022/08/28 07:50:06;;;;;;;16.42;3.67;;;;;;;16.39;81.66;101914.78;6158401;23;20009;-72
2022/08/28 07:52:31;;;;;;;13.02;3.13;;;;;;;16.50;80.67;101923.22;6185581;23;20005;-73
2022/08/28 07:54:57;;;;;;;8.48;2.90;;;;;;;16.53;80.60;101912.66;6159130;23;20092;-74
2022/08/28 07:57:22;;;;;;;15.05;3.92;;;;;;;16.60;80.14;101921.53;6158381;23;20366;-72
2022/08/28 07:59:48;;;;;;;12.27;2.95;;;;;;;16.65;79.68;101907.16;6185130;23;20001;-75
2022/08/28 08:02:14;;;;;;;12.57;3.13;;;;;;;16.76;79.21;101925.44;6156632;23;20005;-72
2022/08/28 08:04:39;;;;;;;13.73;3.40;;;;;;;16.83;80.19;101912.50;6158991;23;20013;-73
2022/08/28 08:07:06;;;;;;;11.18;3.00;;;;;;;16.90;77.18;101923.31;6184786;23;20442;-75
2022/08/28 08:09:36;;;;;;;12.32;3.20;;;;;;;16.96;76.41;101925.06;6183426;23;20068;-74
2022/08/28 08:12:02;;;;;;;9.23;3.15;;;;;;;17.05;76.62;101931.00;6183590;23;20005;-75
2022/08/28 08:14:27;;;;;;;10.30;2.53;;;;;;;17.02;74.06;101927.94;6185519;23;20012;-73
2022/08/28 08:16:53;;;;;;;8.73;2.95;;;;;;;17.03;72.93;101924.97;6184861;23;20625;-73
2022/08/28 08:19:19;;;;;;;13.48;2.70;;;;;;;17.09;72.58;101928.59;6156839;23;20058;-72
2022/08/28 08:21:47;;;;;;;12.63;2.97;;;;;;;17.17;73.23;101939.19;6185184;23;20005;-73
2022/08/28 08:24:14;;;;;;;9.75;2.90;;;;;;;17.27;72.36;101930.34;6185076;23;20009;-73
2022/08/28 08:26:44;;;;;;;8.82;2.45;;;;;;;17.35;71.16;101938.16;6185112;23;20005;-75
2022/08/28 08:29:11;;;;;;;10.50;2.58;;;;;;;17.50;70.35;101940.38;6184897;23;20041;-74
2022/08/28 08:31:42;;;;;;;14.85;2.97;;;;;;;17.60;69.99;101934.25;6158775;23;20009;-73
2022/08/28 08:34:10;;;;;;;12.07;2.10;;;;;;;17.68;68.54;101937.41;6157807;23;20071;-74
2022/08/28 08:36:42;;;;;;;11.90;2.47;;;;;;;17.71;67.87;101939.66;6182073;23;20012;-73
2022/08/28 08:42:37;;;;;;;10.65;2.60;;;;;;;18.00;67.97;101934.16;6181984;23;20334;-73
2022/08/28 08:45:14;;;;;;;9.88;2.50;;;;;;;17.99;67.11;101937.13;6182056;23;20009;-73
2022/08/28 08:47:50;;;;;;;9.88;2.60;;;;;;;17.96;66.22;101940.38;6182685;23;20431;-72
2022/08/28 08:50:20;;;;;;;11.98;2.40;;;;;;;17.95;66.42;101938.72;6184375;23;20419;-71
2022/08/28 08:52:54;;;;;;;14.23;2.73;;;;;;;17.98;66.19;101939.06;6183667;23;20599;-73
2022/08/28 08:55:31;;;;;;;9.77;2.15;;;;;;;18.00;65.95;101938.81;6184376;23;20289;-73
2022/08/28 08:58:23;;;;;;;8.27;2.53;;;;;;;17.96;67.17;101938.47;6184666;23;20039;-71
2022/08/28 09:01:16;;;;;;;13.07;2.35;;;;;;;17.89;66.40;101940.56;6181454;23;20044;-72
2022/08/28 09:04:02;;;;;;;8.50;2.10;;;;;;;17.85;66.20;101940.16;6158713;23;20368;-72
2022/08/28 09:06:48;;;;;;;7.97;2.05;;;;;;;17.81;66.59;101932.69;6184266;23;20008;-73
2022/08/28 09:09:19;;;;;;;5.93;2.25;;;;;;;17.75;65.34;101931.78;6156577;23;20017;-74
2022/08/28 09:12:06;;;;;;;5.55;2.13;;;;;;;17.76;66.11;101940.84;6183966;23;20092;-71
2022/08/28 09:15:04;;;;;;;8.30;1.98;;;;;;;17.81;66.06;101936.25;6184311;23;20005;-73
2022/08/28 09:17:52;;;;;;;6.55;1.80;;;;;;;17.95;66.02;101941.44;6183903;23;20028;-74
2022/08/28 09:20:23;;;;;;;6.85;1.90;;;;;;;18.00;64.52;101936.06;6182886;23;20005;-73
2022/08/28 09:22:49;;;;;;;6.65;2.15;;;;;;;17.99;63.70;101932.47;6184087;23;20073;-73
2022/08/28 09:25:49;;;;;;;8.73;2.25;;;;;;;18.04;64.69;101937.22;6182825;23;20109;-74
2022/08/28 09:28:18;;;;;;;13.63;2.28;;;;;;;18.02;62.95;101942.13;6184500;23;19997;-72
2022/08/28 09:30:53;;;;;;;5.38;2.05;;;;;;;18.03;64.13;101938.31;6184745;23;20005;-71
2022/08/28 09:33:28;;;;;;;8.15;2.22;;;;;;;18.07;64.30;101939.44;6184125;23;20334;-71
2022/08/28 09:35:56;;;;;;;7.50;1.90;;;;;;;18.04;63.58;101935.31;6183947;23;20005;-73
2022/08/28 09:38:24;;;;;;;8.57;2.60;;;;;;;18.02;63.78;101936.66;6157462;23;20001;-73
2022/08/28 09:43:49;;;;;;;6.43;2.17;;;;;;;18.09;64.08;101939.22;6184684;23;20068;-74
2022/08/28 09:46:26;;;;;;;10.00;2.40;;;;;;;18.19;64.15;101942.97;6184234;23;20322;-74
2022/08/28 09:49:07;;;;;;;6.50;2.00;;;;;;;18.26;64.00;101941.97;6182223;23;20031;-74
2022/08/28 09:51:37;;;;;;;5.00;2.05;;;;;;;18.32;63.11;101927.25;6182309;23;20407;-76
2022/08/28 09:54:26;;;;;;;4.57;1.70;;;;;;;18.37;62.76;101932.81;6179425;23;20017;-74
2022/08/28 09:56:53;;;;;;;6.03;2.00;;;;;;;18.41;63.13;101939.44;6184768;23;20026;-74
2022/08/28 09:59:21;;;;;;;7.30;2.30;;;;;;;18.44;61.55;101938.13;6181557;23;20012;-76
2022/08/28 10:02:12;;;;;;;8.57;1.90;;;;;;;18.48;60.70;101933.78;6179727;23;20013;-73
2022/08/28 10:05:02;;;;;;;6.00;2.38;;;;;;;18.63;61.99;101931.28;6155513;23;20039;-73
2022/08/28 10:07:53;;;;;;;9.43;2.30;;;;;;;18.77;60.08;101937.22;6182085;23;19997;-76
2022/08/28 10:10:37;;;;;;;;;;;;;;;18.85;60.61;101941.44;6184009;23;20024;-72
2022/08/28 10:13:15;;;;;;;5.07;1.92;;;;;;;19.02;60.85;101938.66;6158124;23;20222;-71
2022/08/28 10:15:40;;;;;;;7.60;2.40;;;;;;;19.29;58.91;101939.53;6184451;23;20029;-73
2022/08/28 10:18:26;;;;;;;8.13;2.17;;;;;;;19.45;59.17;101936.97;6184663;23;20009;-75
2022/08/28 10:21:02;;;;;;;9.05;1.90;;;;;;;19.44;58.40;101932.56;6159441;23;20248;-75
2022/08/28 10:23:37;;;;;;;9.00;2.05;;;;;;;19.40;58.41;101926.75;6186146;23;20005;-76
2022/08/28 10:26:32;;;;;;;7.32;2.10;;;;;;;19.28;58.57;101937.06;6159976;23;20044;-75
2022/08/28 10:29:21;;;;;;;4.22;2.00;;;;;;;19.19;59.06;101935.84;6186290;23;20431;-75
2022/08/28 10:31:46;;;;;;;6.47;2.03;;;;;;;19.15;58.92;101934.72;6159430;23;20021;-76
2022/08/28 10:34:27;;;;;;;6.73;2.00;;;;;;;19.16;58.19;101934.44;6185378;23;20434;-76
2022/08/28 10:37:23;;;;;;;5.70;2.10;;;;;;;19.28;59.42;101934.31;6186275;23;20490;-76
2022/08/28 10:40:04;;;;;;;8.60;1.92;;;;;;;19.44;57.52;101927.06;6185762;23;20429;-76
2022/08/28 10:42:34;;;;;;;8.17;2.13;;;;;;;19.60;58.04;101922.56;6185768;23;20005;-75
2022/08/28 10:45:05;;;;;;;8.07;2.03;;;;;;;19.74;56.90;101929.28;6185753;23;20016;-76
2022/08/28 10:47:35;;;;;;;7.75;2.22;;;;;;;19.94;56.21;101934.16;6158775;23;20236;-76
2022/08/28 10:50:08;;;;;;;5.50;2.08;;;;;;;20.13;56.05;101931.00;6159741;23;20322;-77
2022/08/28 10:52:50;;;;;;;6.25;2.30;;;;;;;20.38;56.37;101926.78;6185262;23;20009;-75
2022/08/28 10:55:31;;;;;;;5.80;1.92;;;;;;;20.54;54.57;101931.28;6185244;23;20009;-78
2022/08/28 10:58:02;;;;;;;5.72;1.85;;;;;;;20.70;54.16;101935.81;6159727;23;20040;-78
2022/08/28 11:00:27;;;;;;;7.47;2.00;;;;;;;20.62;54.34;101930.78;6183741;23;20323;-75
2022/08/28 11:02:59;;;;;;;6.15;2.35;;;;;;;20.48;55.01;101935.09;6183738;23;20043;-77
2022/08/28 11:05:31;;;;;;;8.73;1.70;;;;;;;20.33;54.94;101931.13;6158692;23;20492;-77
2022/08/28 11:08:02;;;;;;;6.68;2.00;;;;;;;20.19;54.27;101941.75;6184494;23;20424;-77
2022/08/28 11:10:31;;;;;;;6.68;2.10;;;;;;;20.20;54.46;101937.13;6183208;23;20017;-77
2022/08/28 11:12:57;;;;;;;7.32;2.10;;;;;;;20.09;54.15;101938.94;6185655;23;20005;-78
2022/08/28 11:15:25;;;;;;;9.02;2.20;;;;;;;20.05;55.06;101945.22;6185211;23;20060;-77
2022/08/28 11:17:52;;;;;;;6.03;1.80;;;;;;;20.17;55.43;101927.47;6185905;23;20427;-77
2022/08/28 11:20:23;;;;;;;5.20;2.03;;;;;;;20.34;55.08;101924.56;6184059;23;20326;-75
2022/08/28 11:22:58;;;;;;;7.53;1.80;;;;;;;20.51;53.61;101931.81;6185619;23;20080;-76
2022/08/28 11:25:40;;;;;;;4.65;1.60;;;;;;;20.73;53.65;101922.59;6185410;23;20008;-77
2022/08/28 11:28:38;;;;;;;7.57;2.08;;;;;;;20.94;52.98;101927.13;6185606;23;20044;-76
2022/08/28 11:31:03;;;;;;;5.20;1.88;;;;;;;21.15;50.14;101924.44;6157743;23;20005;-77
2022/08/28 11:33:37;;;;;;;6.13;1.73;;;;;;;21.38;50.93;101940.47;6185091;23;20008;-74
2022/08/28 11:36:08;;;;;;;4.55;1.85;;;;;;;21.43;49.26;101934.97;6158635;23;20240;-75
2022/08/28 11:38:39;;;;;;;4.05;1.65;;;;;;;21.55;49.79;101933.94;6185237;23;20055;-74
2022/08/28 11:41:26;;;;;;;4.03;1.58;;;;;;;21.43;50.10;101943.22;6185469;23;20001;-75